Time;durP1;ratioP1;P1;durP2;ratioP2;P2;SDS_P1;SDS_P2;PMS_P1;PMS_P2;Temp;Humidity;BMP_temperature;BMP_pressure;BME280_temperature;BME280_humidity;BME280_pressure;Samples;Min_cycle;Max_cycle;Signal;HPM_P1;HPM_P2
2024/02/20 00:01:56;;;;;;;;;;;;;;;0.94;100.00;97824.27;110521;1238;71333;-61
2024/02/20 00:04:25;;;;;;;;;;;;;;;0.94;100.00;97823.41;110516;1239;69379;-61
2024/02/20 00:06:53;;;;;;;;;;;;;;;0.92;100.00;97822.41;110529;1239;70327;-61
2024/02/20 00:09:22;;;;;;;;;;;;;;;0.94;100.00;97822.20;110557;1238;59839;-61
2024/02/20 00:11:51;;;;;;;;;;;;;;;0.98;100.00;97820.88;110643;1239;59666;-61
2024/02/20 00:14:20;;;;;;;;;;;;;;;1.01;100.00;97816.52;110665;1246;71308;-60
2024/02/20 00:16:49;;;;;;;;;;;;;;;1.03;100.00;97818.16;110621;1238;69564;-61
2024/02/20 00:19:20;;;;;;;;;;;;;;;1.02;100.00;97818.38;110567;1239;69384;-61
2024/02/20 00:21:48;;;;;;;;;;;;;;;1.00;100.00;97813.77;110569;1242;59740;-62
2024/02/20 00:24:18;;;;;;;;;;;;;;;1.03;100.00;97812.52;110424;1241;59631;-62
2024/02/20 00:26:48;;;;;;;;;;;;;;;1.05;100.00;97814.18;110558;1238;71309;-61
2024/02/20 00:29:16;;;;;;;;;;;;;;;1.10;100.00;97810.93;110534;1240;69733;-61
2024/02/20 00:31:46;;;;;;;;;;;;;;;1.14;100.00;97809.46;110528;1241;69338;-60
2024/02/20 00:34:14;;;;;;;;;;;;;;;1.18;100.00;97811.06;110538;1242;59702;-62
2024/02/20 00:36:43;;;;;;;;;;;;;;;1.21;100.00;97806.31;110630;1239;59694;-61
2024/02/20 00:39:13;;;;;;;;;;;;;;;1.24;100.00;97801.43;110606;1240;70950;-60
2024/02/20 00:41:43;;;;;;;;;;;;;;;1.25;100.00;97801.04;110638;1239;68909;-60
2024/02/20 00:44:12;;;;;;;;;;;;;;;1.27;100.00;97801.70;110601;1238;70158;-62
2024/02/20 00:46:41;;;;;;;;;;;;;;;1.30;100.00;97801.76;110586;1237;59793;-61
2024/02/20 00:49:10;;;;;;;;;;;;;;;1.34;100.00;97804.73;110300;1242;59678;-62
2024/02/20 00:51:39;;;;;;;;;;;;;;;1.35;100.00;97802.67;110618;1242;71242;-61
2024/02/20 00:54:07;;;;;;;;;;;;;;;1.32;100.00;97802.73;110539;1241;70148;-61
2024/02/20 00:56:36;;;;;;;;;;;;;;;1.28;100.00;97799.42;110384;1240;69536;-61
2024/02/20 00:59:09;;;;;;;;;;;;;;;1.24;100.00;97801.08;110379;1238;59746;-61
2024/02/20 01:01:37;;;;;;;;;;;;;;;1.22;100.00;97798.55;110412;1241;59662;-62
2024/02/20 01:04:06;;;;;;;;;;;;;;;1.22;100.00;97796.34;110427;1245;72148;-61
2024/02/20 01:06:36;;;;;;;;;;;;;;;1.23;100.00;97794.92;110373;1238;69200;-62
2024/02/20 01:09:05;;;;;;;;;;;;;;;1.23;100.00;97796.80;110417;1242;68576;-61
2024/02/20 01:11:34;;;;;;;;;;;;;;;1.24;100.00;97796.59;110409;1243;59663;-61
2024/02/20 01:14:03;;;;;;;;;;;;;;;1.26;100.00;97792.27;110375;1241;59710;-62
2024/02/20 01:16:32;;;;;;;;;;;;;;;1.26;100.00;97786.44;110472;1241;71319;-62
2024/02/20 01:19:00;;;;;;;;;;;;;;;1.28;100.00;97784.83;110526;1240;68205;-61
2024/02/20 01:21:30;;;;;;;;;;;;;;;1.30;100.00;97782.55;110472;1240;69956;-61
2024/02/20 01:23:59;;;;;;;;;;;;;;;1.33;100.00;97784.34;110464;1241;59708;-62
2024/02/20 01:26:28;;;;;;;;;;;;;;;1.35;100.00;97783.42;110408;1243;59776;-62
2024/02/20 01:28:57;;;;;;;;;;;;;;;1.38;100.00;97783.83;110379;1241;71340;-62
2024/02/20 01:31:26;;;;;;;;;;;;;;;1.41;100.00;97777.40;110500;1242;69882;-62
2024/02/20 01:33:55;;;;;;;;;;;;;;;1.43;100.00;97774.08;110365;1242;70024;-61
2024/02/20 01:36:24;;;;;;;;;;;;;;;1.42;100.00;97769.30;110452;1240;59665;-62
2024/02/20 01:38:53;;;;;;;;;;;;;;;1.42;100.00;97765.68;110459;1240;59678;-62
2024/02/20 01:41:21;;;;;;;;;;;;;;;1.44;100.00;97765.98;110396;1241;71899;-62
2024/02/20 01:43:50;;;;;;;;;;;;;;;1.46;100.00;97763.31;110499;1241;68760;-62
2024/02/20 01:46:22;;;;;;;;;;;;;;;1.48;100.00;97760.70;110364;1241;70312;-62
2024/02/20 01:48:51;;;;;;;;;;;;;;;1.50;100.00;97757.38;110505;1241;59664;-62
2024/02/20 01:51:23;;;;;;;;;;;;;;;1.52;100.00;97761.40;110516;1240;59644;-62
2024/02/20 01:53:52;;;;;;;;;;;;;;;1.56;100.00;97757.70;110460;1238;70648;-61
2024/02/20 01:56:21;;;;;;;;;;;;;;;1.58;100.00;97756.11;110455;1242;69815;-61
2024/02/20 01:58:50;;;;;;;;;;;;;;;1.60;100.00;97754.84;110517;1241;69725;-62
2024/02/20 02:01:18;;;;;;;;;;;;;;;1.60;100.00;97753.10;110242;1242;59656;-62
2024/02/20 02:03:47;;;;;;;;;;;;;;;1.61;100.00;97751.36;110454;1242;59676;-62
2024/02/20 02:06:17;;;;;;;;;;;;;;;1.63;100.00;97756.10;110554;1238;71987;-61
2024/02/20 02:08:47;;;;;;;;;;;;;;;1.67;100.00;97756.67;110451;1240;69851;-62
2024/02/20 02:11:15;;;;;;;;;;;;;;;1.70;100.00;97758.45;110395;1240;69756;-62
2024/02/20 02:13:44;;;;;;;;;;;;;;;1.73;100.00;97756.29;110364;1241;59719;-62
2024/02/20 02:16:12;;;;;;;;;;;;;;;1.76;100.00;97754.48;110402;1242;59664;-62
2024/02/20 02:18:41;;;;;;;;;;;;;;;1.79;100.00;97756.61;110437;1242;71351;-61
2024/02/20 02:21:10;;;;;;;;;;;;;;;1.81;100.00;97757.25;110374;1241;69907;-62
2024/02/20 02:23:39;;;;;;;;;;;;;;;1.78;100.00;97755.94;110492;1242;69261;-62
2024/02/20 02:26:10;;;;;;;;;;;;;;;1.79;100.00;97756.45;110506;1241;59675;-62
2024/02/20 02:28:39;;;;;;;;;;;;;;;1.75;100.00;97754.85;110386;1242;59666;-62
2024/02/20 02:31:08;;;;;;;;;;;;;;;1.72;100.00;97753.23;110373;1241;71378;-62
2024/02/20 02:33:37;;;;;;;;;;;;;;;1.68;100.00;97756.64;110378;1241;69197;-62
2024/02/20 02:36:06;;;;;;;;;;;;;;;1.65;100.00;97755.70;110392;1242;69971;-62
2024/02/20 02:38:34;;;;;;;;;;;;;;;1.61;100.00;97758.58;110408;1242;59672;-62
2024/02/20 02:41:03;;;;;;;;;;;;;;;1.62;100.00;97758.04;110376;1241;59663;-61
2024/02/20 02:43:32;;;;;;;;;;;;;;;1.61;100.00;97755.66;110376;1241;71879;-62
2024/02/20 02:46:01;;;;;;;;;;;;;;;1.62;100.00;97756.47;110498;1241;69046;-62
2024/02/20 02:48:30;;;;;;;;;;;;;;;1.64;100.00;97753.50;110330;1241;69883;-62
2024/02/20 02:50:59;;;;;;;;;;;;;;;1.65;100.00;97757.77;110438;1242;59696;-62
2024/02/20 02:53:27;;;;;;;;;;;;;;;1.66;100.00;97756.70;110434;1242;59673;-61
2024/02/20 02:55:56;;;;;;;;;;;;;;;1.66;100.00;97754.13;110423;1240;70900;-61
2024/02/20 02:58:25;;;;;;;;;;;;;;;1.66;100.00;97757.02;110428;1242;69664;-62
2024/02/20 03:00:54;;;;;;;;;;;;;;;1.66;100.00;97758.73;110452;1242;69074;-62
2024/02/20 03:03:23;;;;;;;;;;;;;;;1.71;100.00;97760.30;110519;1239;59804;-62
2024/02/20 03:05:51;;;;;;;;;;;;;;;1.74;100.00;97759.17;110477;1241;59656;-62
2024/02/20 03:08:20;;;;;;;;;;;;;;;1.75;100.00;97759.33;110431;1242;71333;-62
2024/02/20 03:10:49;;;;;;;;;;;;;;;1.75;100.00;97756.91;110477;1241;69857;-62
2024/02/20 03:13:18;;;;;;;;;;;;;;;1.73;100.00;97754.74;110336;1242;69274;-62
2024/02/20 03:15:47;;;;;;;;;;;;;;;1.73;100.00;97759.58;110419;1242;59702;-62
2024/02/20 03:18:16;;;;;;;;;;;;;;;1.73;100.00;97760.07;110374;1242;59642;-62
2024/02/20 03:20:45;;;;;;;;;;;;;;;1.76;100.00;97758.95;110313;1239;71154;-62
2024/02/20 03:23:13;;;;;;;;;;;;;;;1.78;100.00;97757.50;110432;1241;69818;-62
2024/02/20 03:25:42;;;;;;;;;;;;;;;1.81;100.00;97763.44;110470;1241;69591;-62
2024/02/20 03:28:13;;;;;;;;;;;;;;;1.83;100.00;97765.11;110562;1241;59675;-62
2024/02/20 03:30:41;;;;;;;;;;;;;;;1.85;100.00;97766.22;110458;1242;59672;-62
2024/02/20 03:33:10;;;;;;;;;;;;;;;1.88;100.00;97768.52;110465;1243;70371;-61
2024/02/20 03:35:39;;;;;;;;;;;;;;;1.90;100.00;97772.25;110389;1241;69335;-61
2024/02/20 03:38:09;;;;;;;;;;;;;;;1.93;100.00;97768.55;110355;1241;69248;-62
2024/02/20 03:40:37;;;;;;;;;;;;;;;1.96;100.00;97772.92;110394;1241;59741;-62
2024/02/20 03:43:07;;;;;;;;;;;;;;;1.98;100.00;97774.05;110321;1239;60126;-62
2024/02/20 03:45:36;;;;;;;;;;;;;;;2.00;100.00;97772.27;110340;1241;72054;-62
2024/02/20 03:48:06;;;;;;;;;;;;;;;2.04;100.00;97773.35;110412;1239;68525;-62
2024/02/20 03:50:35;;;;;;;;;;;;;;;2.05;100.00;97776.41;110394;1241;70252;-62
2024/02/20 03:53:04;;;;;;;;;;;;;;;2.07;100.00;97777.38;110317;1240;59711;-62
2024/02/20 03:55:36;;;;;;;;;;;;;;;2.08;100.00;97780.96;110163;1244;59683;-62
2024/02/20 03:58:05;;;;;;;;;;;;;;;2.10;100.00;97784.69;110589;1241;72101;-62
2024/02/20 04:00:35;;;;;;;;;;;;;;;2.11;100.00;97783.59;110453;1238;69207;-62
2024/02/20 04:03:04;;;;;;;;;;;;;;;2.12;100.00;97785.63;110531;1241;69263;-62
2024/02/20 04:05:33;;;;;;;;;;;;;;;2.13;100.00;97783.70;110215;1242;59712;-62
2024/02/20 04:08:01;;;;;;;;;;;;;;;2.16;100.00;97783.79;110487;1241;59737;-62
2024/02/20 04:10:30;;;;;;;;;;;;;;;2.18;100.00;97784.26;110492;1241;71345;-62
2024/02/20 04:12:59;;;;;;;;;;;;;;;2.17;100.00;97786.84;110370;1242;69631;-62
2024/02/20 04:15:28;;;;;;;;;;;;;;;2.12;100.00;97783.59;110242;1242;70222;-62
2024/02/20 04:17:56;;;;;;;;;;;;;;;2.08;100.00;97785.95;110495;1241;59669;-62
2024/02/20 04:20:26;;;;;;;;;;;;;;;2.04;100.00;97787.11;110449;1242;59757;-62
2024/02/20 04:22:55;;;;;;;;;;;;;;;2.00;100.00;97791.15;110609;1244;71202;-61
2024/02/20 04:25:23;;;;;;;;;;;;;;;1.93;100.00;97793.63;110526;1238;69214;-61
2024/02/20 04:27:53;;;;;;;;;;;;;;;1.91;100.00;97794.05;110502;1240;69693;-61
2024/02/20 04:30:22;;;;;;;;;;;;;;;1.91;100.00;97794.23;110671;1241;59690;-61
2024/02/20 04:32:51;;;;;;;;;;;;;;;1.90;100.00;97789.27;110522;1237;59676;-61
2024/02/20 04:35:20;;;;;;;;;;;;;;;1.90;100.00;97788.74;110604;1242;72044;-62
2024/02/20 04:37:48;;;;;;;;;;;;;;;1.92;100.00;97786.61;110572;1239;68430;-63
2024/02/20 04:40:18;;;;;;;;;;;;;;;1.93;100.00;97783.14;110545;1239;68784;-61
2024/02/20 04:42:47;;;;;;;;;;;;;;;1.92;100.00;97785.41;110637;1246;59740;-61
2024/02/20 04:45:15;;;;;;;;;;;;;;;1.94;100.00;97788.79;110607;1239;59639;-61
2024/02/20 04:47:44;;;;;;;;;;;;;;;1.97;100.00;97789.56;110502;1239;71295;-61
2024/02/20 04:50:16;;;;;;;;;;;;;;;1.96;100.00;97788.37;110621;1239;70109;-61
2024/02/20 04:52:44;;;;;;;;;;;;;;;1.95;100.00;97787.75;110526;1237;69265;-62
2024/02/20 04:55:13;;;;;;;;;;;;;;;1.94;100.00;97786.05;110581;1238;59753;-62
2024/02/20 04:57:42;;;;;;;;;;;;;;;1.96;100.00;97785.64;110363;1241;59676;-62
2024/02/20 05:00:11;;;;;;;;;;;;;;;1.99;100.00;97788.30;110385;1238;71356;-62
2024/02/20 05:02:42;;;;;;;;;;;;;;;2.02;100.00;97787.85;110465;1238;68754;-62
2024/02/20 05:05:10;;;;;;;;;;;;;;;2.03;100.00;97784.70;110386;1242;69328;-62
2024/02/20 05:07:39;;;;;;;;;;;;;;;2.04;100.00;97787.11;110371;1241;59672;-62
2024/02/20 05:10:10;;;;;;;;;;;;;;;2.03;100.00;97785.75;110360;1242;59678;-62
2024/02/20 05:12:42;;;;;;;;;;;;;;;2.01;100.00;97783.59;110419;1242;71730;-62
2024/02/20 05:15:11;;;;;;;;;;;;;;;1.98;100.00;97780.75;110447;1240;69902;-62
2024/02/20 05:17:40;;;;;;;;;;;;;;;1.98;100.00;97783.14;110482;1240;69133;-62
2024/02/20 05:20:09;;;;;;;;;;;;;;;1.98;100.00;97785.90;110502;1245;59722;-62
2024/02/20 05:22:38;;;;;;;;;;;;;;;1.97;100.00;97785.75;110424;1242;59679;-61
2024/02/20 05:25:07;;;;;;;;;;;;;;;1.99;100.00;97791.91;110388;1240;71454;-62
2024/02/20 05:27:36;;;;;;;;;;;;;;;1.99;100.00;97791.55;110454;1238;69185;-61
2024/02/20 05:30:06;;;;;;;;;;;;;;;2.00;100.00;97792.02;110393;1242;69595;-62
2024/02/20 05:32:34;;;;;;;;;;;;;;;2.03;100.00;97791.77;110424;1241;59693;-63
2024/02/20 05:35:05;;;;;;;;;;;;;;;2.04;100.00;97791.23;110647;1241;59746;-62
2024/02/20 05:37:34;;;;;;;;;;;;;;;2.05;100.00;97796.18;110593;1241;72142;-61
2024/02/20 05:40:04;;;;;;;;;;;;;;;2.08;100.00;97795.24;110426;1240;69217;-61
2024/02/20 05:42:33;;;;;;;;;;;;;;;2.11;100.00;97798.55;110414;1241;69581;-61
2024/02/20 05:45:01;;;;;;;;;;;;;;;2.13;100.00;97793.52;110490;1240;59686;-62
2024/02/20 05:47:30;;;;;;;;;;;;;;;2.17;100.00;97799.05;110515;1241;59679;-60
2024/02/20 05:49:59;;;;;;;;;;;;;;;2.20;100.00;97801.35;110605;1239;71848;-62
2024/02/20 05:52:28;;;;;;;;;;;;;;;2.23;100.00;97803.50;110562;1239;69645;-62
2024/02/20 05:54:57;;;;;;;;;;;;;;;2.24;100.00;97802.94;110499;1239;70162;-62
2024/02/20 05:57:26;;;;;;;;;;;;;;;2.27;100.00;97806.64;110565;1239;59746;-62
2024/02/20 05:59:55;;;;;;;;;;;;;;;2.32;100.00;97809.91;110560;1239;59618;-63
2024/02/20 06:02:24;;;;;;;;;;;;;;;2.38;100.00;97810.40;110546;1239;71254;-61
2024/02/20 06:04:54;;;;;;;;;;;;;;;2.42;100.00;97813.85;110297;1243;69906;-62
2024/02/20 06:07:24;;;;;;;;;;;;;;;2.47;100.00;97820.24;110474;1241;69056;-60
2024/02/20 06:09:52;;;;;;;;;;;;;;;2.51;100.00;97817.88;110441;1238;59745;-62
2024/02/20 06:12:21;;;;;;;;;;;;;;;2.52;100.00;97817.64;110406;1242;59695;-62
2024/02/20 06:14:50;;;;;;;;;;;;;;;2.56;100.00;97816.84;110355;1242;71896;-61
2024/02/20 06:17:19;;;;;;;;;;;;;;;2.60;100.00;97817.21;109860;1242;712561;-61
2024/02/20 06:19:48;;;;;;;;;;;;;;;2.63;100.00;97821.76;110364;1242;69073;-62
2024/02/20 06:22:17;;;;;;;;;;;;;;;2.67;100.00;97823.84;110419;1241;59651;-62
2024/02/20 06:24:46;;;;;;;;;;;;;;;2.70;100.00;97827.71;110345;1239;59743;-61
2024/02/20 06:27:15;;;;;;;;;;;;;;;2.71;100.00;97832.68;110411;1241;71690;-62
2024/02/20 06:29:44;;;;;;;;;;;;;;;2.69;100.00;97834.13;110399;1238;69469;-61
2024/02/20 06:32:12;;;;;;;;;;;;;;;2.69;100.00;97838.95;110422;1239;69078;-62
2024/02/20 06:34:41;;;;;;;;;;;;;;;2.72;100.00;97840.20;110523;1238;59731;-61
2024/02/20 06:37:10;;;;;;;;;;;;;;;2.76;100.00;97838.86;110450;1239;59671;-61
2024/02/20 06:39:39;;;;;;;;;;;;;;;2.81;100.00;97843.52;110253;1242;71920;-61
2024/02/20 06:42:08;;;;;;;;;;;;;;;2.87;100.00;97848.46;110416;1241;69219;-62
2024/02/20 06:44:37;;;;;;;;;;;;;;;2.91;100.00;97847.11;110372;1242;68417;-61
2024/02/20 06:47:06;;;;;;;;;;;;;;;3.00;100.00;97851.80;110364;1244;59748;-62
2024/02/20 06:49:35;;;;;;;;;;;;;;;3.10;100.00;97851.11;110407;1242;59598;-61
2024/02/20 06:52:04;;;;;;;;;;;;;;;3.17;100.00;97850.67;110463;1242;70993;-62
2024/02/20 06:54:33;;;;;;;;;;;;;;;3.26;100.00;97853.61;110390;1242;69757;-62
2024/02/20 06:57:01;;;;;;;;;;;;;;;3.35;100.00;97850.20;110424;1238;69244;-62
2024/02/20 06:59:31;;;;;;;;;;;;;;;3.38;100.00;97851.95;110422;1240;59708;-62
2024/02/20 07:01:59;;;;;;;;;;;;;;;3.45;100.00;97854.32;110419;1242;59708;-62
2024/02/20 07:04:29;;;;;;;;;;;;;;;3.49;100.00;97856.39;110604;1239;71355;-62
2024/02/20 07:06:58;;;;;;;;;;;;;;;3.53;100.00;97858.80;110502;1238;68323;-61
2024/02/20 07:09:27;;;;;;;;;;;;;;;3.59;100.00;97855.16;110350;1242;69773;-61
2024/02/20 07:11:56;;;;;;;;;;;;;;;3.64;100.00;97857.90;110366;1241;59683;-61
2024/02/20 07:14:25;;;;;;;;;;;;;;;3.67;100.00;97861.07;110365;1242;59691;-61
2024/02/20 07:16:53;;;;;;;;;;;;;;;3.63;100.00;97860.02;110500;1241;70372;-61
2024/02/20 07:19:25;;;;;;;;;;;;;;;3.58;100.00;97857.58;110443;1240;69060;-61
2024/02/20 07:21:54;;;;;;;;;;;;;;;3.54;100.00;97857.89;110592;1239;68344;-61
2024/02/20 07:24:24;;;;;;;;;;;;;;;3.52;100.00;97856.79;110591;1238;59722;-61
2024/02/20 07:26:52;;;;;;;;;;;;;;;3.51;100.00;97857.34;110437;1239;59654;-61
2024/02/20 07:29:21;;;;;;;;;;;;;;;3.51;100.00;97856.82;110572;1239;70919;-61
2024/02/20 07:31:50;;;;;;;;;;;;;;;3.51;100.00;97863.56;110558;1239;69245;-61
2024/02/20 07:34:18;;;;;;;;;;;;;;;3.54;100.00;97864.98;110483;1238;68905;-60
2024/02/20 07:36:48;;;;;;;;;;;;;;;3.62;100.00;97860.02;110579;1240;59692;-61
2024/02/20 07:39:17;;;;;;;;;;;;;;;3.72;100.00;97861.02;110526;1244;59663;-61
2024/02/20 07:41:46;;;;;;;;;;;;;;;3.80;100.00;97859.34;110533;1239;72008;-61
2024/02/20 07:44:14;;;;;;;;;;;;;;;3.89;100.00;97860.91;110572;1239;69370;-62
2024/02/20 07:46:44;;;;;;;;;;;;;;;3.98;100.00;97858.83;110504;1239;69236;-62
2024/02/20 07:49:13;;;;;;;;;;;;;;;4.07;100.00;97859.48;110389;1242;59796;-62
2024/02/20 07:51:42;;;;;;;;;;;;;;;4.12;100.00;97857.08;110474;1238;59695;-62
2024/02/20 07:54:11;;;;;;;;;;;;;;;4.20;100.00;97859.70;110523;1242;69782;-62
2024/02/20 07:56:40;;;;;;;;;;;;;;;4.29;100.00;97861.04;110551;1240;69577;-62
2024/02/20 07:59:10;;;;;;;;;;;;;;;4.38;100.00;97859.47;110630;1240;69730;-62
2024/02/20 08:01:39;;;;;;;;;;;;;;;4.49;100.00;97859.17;110467;1239;59798;-62
2024/02/20 08:04:08;;;;;;;;;;;;;;;4.56;100.00;97862.49;110453;1239;59694;-62
2024/02/20 08:06:37;;;;;;;;;;;;;;;4.62;100.00;97864.16;110481;1239;71353;-62
2024/02/20 08:09:06;;;;;;;;;;;;;;;4.61;100.00;97865.08;110531;1239;68116;-62
2024/02/20 08:11:35;;;;;;;;;;;;;;;4.66;100.00;97865.40;110536;1239;69199;-62
2024/02/20 08:14:04;;;;;;;;;;;;;;;4.67;100.00;97862.41;110490;1239;59761;-62
2024/02/20 08:16:35;;;;;;;;;;;;;;;4.71;100.00;97858.28;110515;1240;59695;-61
2024/02/20 08:19:04;;;;;;;;;;;;;;;4.68;100.00;97861.70;110512;1237;71830;-61
2024/02/20 08:21:35;;;;;;;;;;;;;;;4.73;100.00;97861.48;110543;1240;69186;-63
2024/02/20 08:24:05;;;;;;;;;;;;;;;4.69;100.00;97864.58;110517;1239;68375;-61
2024/02/20 08:26:34;;;;;;;;;;;;;;;4.72;100.00;97861.70;110438;1239;59798;-62
2024/02/20 08:29:03;;;;;;;;;;;;;;;4.74;100.00;97863.31;110393;1241;59702;-63
2024/02/20 08:31:32;;;;;;;;;;;;;;;4.75;100.00;97866.38;110236;1239;71263;-62
2024/02/20 08:34:01;;;;;;;;;;;;;;;4.79;100.00;97867.41;110466;1241;69361;-62
2024/02/20 08:36:30;;;;;;;;;;;;;;;4.82;100.00;97871.95;110400;1242;69834;-63
2024/02/20 08:38:59;;;;;;;;;;;;;;;4.81;100.00;97876.31;110274;1243;59716;-63
2024/02/20 08:41:28;;;;;;;;;;;;;;;4.84;100.00;97879.82;110504;1241;59763;-63
2024/02/20 08:43:58;;;;;;;;;;;;;;;4.83;100.00;97880.88;110478;1240;71491;-63
2024/02/20 08:46:27;;;;;;;;;;;;;;;4.86;100.00;97880.25;110514;1242;69789;-62
2024/02/20 08:48:57;;;;;;;;;;;;;;;4.92;100.00;97881.05;110429;1242;68721;-61
2024/02/20 08:51:25;;;;;;;;;;;;;;;5.00;100.00;97881.71;110551;1242;59667;-61
2024/02/20 08:53:54;;;;;;;;;;;;;;;5.05;100.00;97882.54;110463;1241;59662;-61
2024/02/20 08:56:23;;;;;;;;;;;;;;;5.03;100.00;97885.73;110241;1242;71798;-61
2024/02/20 08:58:52;;;;;;;;;;;;;;;5.12;100.00;97884.48;110412;1238;67797;-62
2024/02/20 09:01:24;;;;;;;;;;;;;;;5.18;100.00;97885.27;110423;1242;70275;-62
2024/02/20 09:03:54;;;;;;;;;;;;;;;5.27;100.00;97891.63;110415;1241;59718;-62
2024/02/20 09:06:23;;;;;;;;;;;;;;;5.36;100.00;97890.37;110434;1241;60082;-61
2024/02/20 09:08:52;;;;;;;;;;;;;;;5.37;100.00;97892.92;110399;1240;71981;-61
2024/02/20 09:11:21;;;;;;;;;;;;;;;5.44;100.00;97889.14;110486;1240;69823;-62
2024/02/20 09:13:50;;;;;;;;;;;;;;;5.54;100.00;97886.06;110397;1240;69275;-61
2024/02/20 09:16:19;;;;;;;;;;;;;;;5.53;100.00;97891.86;110486;1242;59751;-61
2024/02/20 09:18:48;;;;;;;;;;;;;;;5.54;100.00;97892.65;110463;1241;59684;-61
2024/02/20 09:21:17;;;;;;;;;;;;;;;5.61;100.00;97896.33;110478;1242;70932;-62
2024/02/20 09:23:46;;;;;;;;;;;;;;;5.63;100.00;97890.88;110412;1242;68847;-61
2024/02/20 09:26:15;;;;;;;;;;;;;;;5.69;100.00;97896.85;110413;1243;68173;-61
2024/02/20 09:28:43;;;;;;;;;;;;;;;5.76;100.00;97899.63;110499;1243;59723;-61
2024/02/20 09:31:12;;;;;;;;;;;;;;;5.77;100.00;97901.30;110389;1242;59634;-61
2024/02/20 09:33:41;;;;;;;;;;;;;;;5.93;100.00;97902.98;110409;1239;72068;-61
2024/02/20 09:36:10;;;;;;;;;;;;;;;6.07;100.00;97901.67;110392;1241;69844;-61
2024/02/20 09:38:38;;;;;;;;;;;;;;;6.14;100.00;97904.28;110363;1241;68160;-61
2024/02/20 09:41:08;;;;;;;;;;;;;;;6.13;100.00;97907.27;110381;1242;60062;-61
2024/02/20 09:43:38;;;;;;;;;;;;;;;6.18;100.00;97908.79;110415;1244;59723;-62
2024/02/20 09:46:10;;;;;;;;;;;;;;;6.24;100.00;97907.48;110512;1241;71348;-61
2024/02/20 09:48:40;;;;;;;;;;;;;;;6.27;100.00;97914.38;110625;1238;69797;-63
2024/02/20 09:51:09;;;;;;;;;;;;;;;6.29;100.00;97911.39;110517;1247;69128;-61
2024/02/20 09:53:41;;;;;;;;;;;;;;;6.21;100.00;97907.46;110456;1242;59673;-62
2024/02/20 09:56:11;;;;;;;;;;;;;;;6.21;100.00;97909.52;110432;1242;59682;-62
2024/02/20 09:58:40;;;;;;;;;;;;;;;6.09;100.00;97906.60;110583;1240;71414;-63
2024/02/20 10:01:09;;;;;;;;;;;;;;;6.06;100.00;97905.36;110587;1241;69215;-63
2024/02/20 10:03:40;;;;;;;;;;;;;;;6.07;100.00;97902.34;110487;1241;69931;-63
2024/02/20 10:06:13;;;;;;;;;;;;;;;6.15;100.00;97898.35;110505;1240;59795;-61
2024/02/20 10:08:42;;;;;;;;;;;;;;;6.09;100.00;97899.35;110394;1242;59672;-61
2024/02/20 10:11:10;;;;;;;;;;;;;;;6.18;100.00;97898.23;110364;1240;71994;-61
2024/02/20 10:13:43;;;;;;;;;;;;;;;6.24;100.00;97895.86;110427;1241;69839;-61
2024/02/20 10:16:16;;;;;;;;;;;;;;;6.30;100.00;97892.98;110483;1241;69870;-60
2024/02/20 10:19:06;;;;;;;;;;;;;;;6.40;100.00;97888.88;110393;1242;59678;-61
2024/02/20 10:21:35;;;;;;;;;;;;;;;6.50;100.00;97890.63;110440;1243;59678;-61
2024/02/20 10:24:08;;;;;;;;;;;;;;;6.56;100.00;97893.78;110422;1243;71288;-62
2024/02/20 10:26:48;;;;;;;;;;;;;;;6.55;100.00;97893.16;110351;1242;69819;-61
2024/02/20 10:29:17;;;;;;;;;;;;;;;6.61;100.00;97889.55;110468;1245;69887;-62
2024/02/20 10:31:47;;;;;;;;;;;;;;;6.71;100.00;97887.36;110346;1241;59715;-61
2024/02/20 10:34:20;;;;;;;;;;;;;;;6.76;100.00;97881.91;110346;1241;59683;-61
2024/02/20 10:36:49;;;;;;;;;;;;;;;6.84;100.00;97877.66;110521;1246;72505;-61
2024/02/20 10:39:19;;;;;;;;;;;;;;;6.99;100.00;97876.24;110393;1245;69852;-61
2024/02/20 10:41:48;;;;;;;;;;;;;;;7.07;100.00;97876.71;110338;1241;69961;-61
2024/02/20 10:44:17;;;;;;;;;;;;;;;7.16;100.00;97878.48;110469;1241;59702;-61
2024/02/20 10:46:52;;;;;;;;;;;;;;;7.20;100.00;97875.68;110486;1239;59697;-62
2024/02/20 10:49:27;;;;;;;;;;;;;;;7.16;100.00;97873.11;110488;1239;71176;-61
2024/02/20 10:52:03;;;;;;;;;;;;;;;7.24;100.00;97869.58;110477;1239;69214;-62
2024/02/20 10:54:33;;;;;;;;;;;;;;;7.39;100.00;97869.67;110500;1239;69975;-61
2024/02/20 10:57:14;;;;;;;;;;;;;;;7.50;100.00;97863.17;110495;1239;59737;-62
2024/02/20 10:59:43;;;;;;;;;;;;;;;7.39;100.00;97866.52;110660;1239;59679;-61
2024/02/20 11:02:13;;;;;;;;;;;;;;;7.45;100.00;97862.05;110541;1239;71262;-61
2024/02/20 11:04:43;;;;;;;;;;;;;;;7.55;100.00;97860.28;110475;1241;69177;-61
2024/02/20 11:07:12;;;;;;;;;;;;;;;7.58;100.00;97858.08;110515;1239;69741;-62
2024/02/20 11:09:41;;;;;;;;;;;;;;;7.39;100.00;97855.96;110388;1241;59640;-62
2024/02/20 11:12:09;;;;;;;;;;;;;;;7.37;100.00;97856.95;110398;1242;60049;-62
2024/02/20 11:14:38;;;;;;;;;;;;;;;7.38;100.00;97858.95;110407;1243;71945;-62
2024/02/20 11:17:16;;;;;;;;;;;;;;;7.43;100.00;97859.38;110467;1241;69070;-62
2024/02/20 11:20:16;;;;;;;;;;;;;;;7.47;100.00;97856.75;110445;1241;69532;-62
2024/02/20 11:22:46;;;;;;;;;;;;;;;7.52;100.00;97851.95;110388;1238;59764;-62
2024/02/20 11:25:16;;;;;;;;;;;;;;;7.54;100.00;97849.96;110447;1241;59627;-62
2024/02/20 11:27:48;;;;;;;;;;;;;;;7.62;100.00;97852.27;110452;1241;71450;-62
2024/02/20 11:30:22;;;;;;;;;;;;;;;7.62;100.00;97850.02;110421;1241;69227;-62
2024/02/20 11:32:52;;;;;;;;;;;;;;;7.69;100.00;97849.70;110402;1242;69729;-62
2024/02/20 11:35:24;;;;;;;;;;;;;;;7.65;100.00;97847.45;110374;1241;59744;-63
2024/02/20 11:37:54;;;;;;;;;;;;;;;7.63;100.00;97850.15;110393;1242;59679;-62
2024/02/20 11:40:24;;;;;;;;;;;;;;;7.67;100.00;97848.58;110599;1239;71274;-62
2024/02/20 11:42:56;;;;;;;;;;;;;;;7.64;100.00;97851.31;110522;1238;68003;-62
2024/02/20 11:45:28;;;;;;;;;;;;;;;7.46;100.00;97847.09;110529;1237;69051;-63
2024/02/20 11:48:00;;;;;;;;;;;;;;;7.44;100.00;97845.98;110492;1244;59750;-62
2024/02/20 11:50:31;;;;;;;;;;;;;;;7.50;100.00;97849.63;110514;1238;59678;-63
2024/02/20 11:53:01;;;;;;;;;;;;;;;7.52;100.00;97847.47;110433;1242;70860;-63
2024/02/20 11:55:32;;;;;;;;;;;;;;;7.54;100.00;97848.92;110429;1242;69628;-64
2024/02/20 11:58:04;;;;;;;;;;;;;;;7.46;100.00;97846.73;110435;1242;69886;-64
2024/02/20 12:00:35;;;;;;;;;;;;;;;7.49;100.00;97845.18;110474;1241;59705;-63
2024/02/20 12:03:04;;;;;;;;;;;;;;;7.53;100.00;97844.31;110520;1242;59663;-62
2024/02/20 12:05:37;;;;;;;;;;;;;;;7.53;100.00;97841.52;110493;1242;71780;-62
2024/02/20 12:08:16;;;;;;;;;;;;;;;7.51;100.00;97837.61;110507;1242;69096;-62
2024/02/20 12:10:46;;;;;;;;;;;;;;;7.39;100.00;97839.33;110472;1244;69361;-63
2024/02/20 12:13:16;;;;;;;;;;;;;;;7.46;100.00;97838.05;110451;1247;59675;-62
2024/02/20 12:15:49;;;;;;;;;;;;;;;7.56;100.00;97842.92;110594;1242;59673;-63
2024/02/20 12:18:24;;;;;;;;;;;;;;;7.63;100.00;97841.98;110461;1241;70419;-62
2024/02/20 12:21:07;;;;;;;;;;;;;;;7.70;100.00;97837.32;110520;1242;69788;-63
2024/02/20 12:23:39;;;;;;;;;;;;;;;7.77;100.00;97835.17;110483;1238;69285;-62
2024/02/20 12:26:08;;;;;;;;;;;;;;;7.81;100.00;97834.61;110577;1242;59691;-63
2024/02/20 12:28:38;;;;;;;;;;;;;;;7.79;100.00;97835.08;110392;1242;59763;-62
2024/02/20 12:31:08;;;;;;;;;;;;;;;7.84;100.00;97838.09;110453;1244;72446;-63
2024/02/20 12:33:37;;;;;;;;;;;;;;;7.90;100.00;97839.14;110402;1241;69952;-63
2024/02/20 12:36:10;;;;;;;;;;;;;;;7.99;100.00;97834.67;110406;1238;69916;-63
2024/02/20 12:38:39;;;;;;;;;;;;;;;8.07;100.00;97831.10;110431;1237;59713;-62
2024/02/20 12:41:08;;;;;;;;;;;;;;;8.30;100.00;97829.42;110499;1244;59659;-62
2024/02/20 12:43:36;;;;;;;;;;;;;;;8.65;100.00;97820.66;110452;1239;72291;-62
2024/02/20 12:46:06;;;;;;;;;;;;;;;8.95;100.00;97820.98;110484;1239;69244;-62
2024/02/20 12:48:35;;;;;;;;;;;;;;;9.18;100.00;97820.98;110514;1239;69887;-62